Portada
METAR-TAF:

METAR-TAF

Aeropuertos :

Illizi, Argelia

latitud: 26-30N, longitud: 008-25E, altitud: 558 m

Observación

El informe se hizo hace 40 minutos, a las 20:00 UTC
Viento 4 kt del este
Temperatura 38°C
Humedad 10%
Presión 1014 hPa
Visibilidad 10 km o más
sin nubes por debajo de 1500 m y sin presencia de cumulonimbus.

METAR: DAAP 182000Z 09004KT CAVOK 38/01 Q1014

Hora: 21:40 (20:40 UTC)

Pronóstico

El informe se hizo hace 3 horas y 40 minutos, a las 17:00 UTC
Pronóstico válido del 18 a las 18 UTC al 19 a las 03 UTC
Viento 10 kt del noreste
Visibilidad 10 km o más
sin nubes por debajo de 1500 m y sin presencia de cumulonimbus.

TAF: DAAP 181700Z 1818/1903 04010KT CAVOK

Observaciones y pronósticos meteorológicos de más de 4000 aeropuertos (mensajes METAR y TAF).

Los puntos amarillos y rojos representan las estaciones disponibles.

Ponga el ratón en el punto deseado para ver el nombre de la estación.

Haga clic para ver las observaciones y los pronósticos meteorológicos.

Para cambiar el mapa : haga clic en los botones verdes con una cruz de color negro para hacer un zoom, en el botón verde con un guión para alejar o en las flechas verdes para mapas adyacentes.


METAR-TAF: